Monday, November 24, 2014, 1:30 AM EST

KSEG, Selinsgrove Penn Valley Airport

Location: Selinsgrove, PA, United States Lat: 40.817
Local Time: 1:30 AM EST ( 6:30 GMT) Lon: -76.867
Time Zone: US/Eastern Elev: 449 ft

Show me the last for .
Show Decoded

2014-11-24 00:53 METAR KSEG 240553Z AUTO 12005KT 4SM RA BR OVC015 11/09 A2974 RMK AO2 PRESFR
                 SLP071 P0015 60019 T01110094 10111 20072 58064 $ =
2014-11-24 00:11 METAR KSEG 240511Z AUTO 00000KT 4SM RA BR OVC014 09/08 A2981 RMK AO2 P0003
                 T00890078 $ =
2014-11-23 23:53 METAR KSEG 240453Z AUTO 00000KT 5SM -RA BR OVC016 09/08 A2982 RMK AO2 PRESFR
                 SLP100 P0004 T00940078 401440011 $ =
2014-11-23 22:53 METAR KSEG 240353Z AUTO VRB04KT 10SM -RA OVC021 11/06 A2989 RMK AO2 RAB43 SLP123
                 P0000 T01060061 $ =
2014-11-23 22:13 METAR KSEG 240313Z AUTO 17006KT 10SM BKN026 OVC033 11/04 A2992 RMK AO2 T01060039
                 $ =
2014-11-23 20:53 METAR KSEG 240153Z AUTO 00000KT 10SM BKN039 OVC046 08/00 A2996 RMK AO2 SLP148
                 T00830000 $ =
2014-11-23 19:53 METAR KSEG 240053Z AUTO 00000KT 10SM SCT026 09/M01 A3000 RMK AO2 SLP160
                 T00941011 $ =
2014-11-23 17:53 METAR KSEG 232253Z AUTO 16005KT 10SM CLR 08/M03 A3002 RMK AO2 SLP169 T00831028 $
                 =
2014-11-23 16:53 METAR KSEG 232153Z AUTO 21003KT 10SM CLR 08/M03 A3003 RMK AO2 SLP172 T00831028 $
                 =
2014-11-23 15:53 METAR KSEG 232053Z AUTO 00000KT 10SM CLR 12/M03 A3004 RMK AO2 SLP175 T01221033
                 58017 $ =
2014-11-23 14:53 METAR KSEG 231953Z AUTO 23003KT 10SM CLR 14/M04 A3006 RMK AO2 SLP179 T01441039 $
                 =
2014-11-23 13:53 METAR KSEG 231853Z AUTO 16005KT 10SM CLR 14/M04 A3008 RMK AO2 SLP187 T01391044 $
                 =
2014-11-23 12:53 METAR KSEG 231753Z AUTO VRB03KT 10SM CLR 11/M05 A3009 RMK AO2 SLP193 T01111050
                 10117 20017 56037 $ =
2014-11-23 10:53 METAR KSEG 231553Z AUTO 15005KT 10SM CLR 09/M05 A3017 RMK AO2 SLP219 T00891050 $
                 =
2014-11-23 09:53 METAR KSEG 231453Z AUTO 00000KT 10SM SCT100 06/M04 A3020 RMK AO2 SLP231
                 T00561044 $ =
2014-11-23 08:53 METAR KSEG 231353Z AUTO 00000KT 9SM OVC090 03/M03 A3019 RMK AO2 SLP227 T00331028
                 $ =
2014-11-23 07:53 METAR KSEG 231253Z AUTO 00000KT 8SM BKN048 OVC100 02/M03 A3019 RMK AO2 SLP226
                 T00221033 =
2014-11-23 06:53 METAR KSEG 231153Z AUTO 00000KT 10SM FEW100 02/M04 A3018 RMK AO2 SLP223
                 T00171039 10039 20011 51007 =
2014-11-23 05:53 METAR KSEG 231053Z AUTO 00000KT 10SM FEW070 OVC100 02/M04 A3017 RMK AO2 SLP221
                 T00171039 =
2014-11-23 04:53 METAR KSEG 230953Z AUTO 00000KT 10SM OVC065 02/M04 A3017 RMK AO2 SLP219
                 T00171044 =
2014-11-23 03:53 METAR KSEG 230853Z AUTO 00000KT 10SM BKN080 OVC110 01/M06 A3016 RMK AO2 SLP216
                 T00111056 50001 =
2014-11-23 02:53 METAR KSEG 230753Z AUTO 00000KT 10SM SCT080 03/M07 A3016 RMK AO2 SLP217
                 T00281067 =
2014-11-23 01:53 METAR KSEG 230653Z AUTO 11003KT 10SM BKN095 02/M07 A3017 RMK AO2 SLP220
                 T00221067 =

Support USWX by starting your Amazon purchase here.